createdAt,value
2023-03-26T00:01:52.668Z,99977.59
2023-03-26T00:04:21.931Z,99986.16
2023-03-26T00:06:50.232Z,99991.44
2023-03-26T00:09:18.893Z,99986.13
2023-03-26T00:11:47.238Z,99988.53
2023-03-26T00:14:17.541Z,99994.66
2023-03-26T00:16:47.427Z,99995.81
2023-03-26T00:19:15.555Z,100001.91
2023-03-26T00:21:44.552Z,99999.03
2023-03-26T00:24:16.074Z,100006.16
2023-03-26T00:26:44.731Z,100014.88
2023-03-26T00:29:13.856Z,100017.31
2023-03-26T00:31:45.946Z,100019.56
2023-03-26T00:34:15.594Z,100030.72
2023-03-26T00:36:46.825Z,100026.13
2023-03-26T00:39:15.208Z,100029.41
2023-03-26T00:41:43.296Z,100037.88
2023-03-26T00:44:11.725Z,100036.44
2023-03-26T00:46:39.480Z,100041.72
2023-03-26T00:49:10.823Z,100046.75
2023-03-26T00:51:39.276Z,100035.97
2023-03-26T00:54:09.017Z,100046.50
2023-03-26T00:56:36.857Z,100044.31
2023-03-26T00:59:04.814Z,100049.00
2023-03-26T01:01:32.527Z,100057.34
2023-03-26T01:04:24.122Z,100059.47
2023-03-26T01:06:52.246Z,100068.03
2023-03-26T01:09:25.830Z,100071.13
2023-03-26T01:11:53.741Z,100079.66
2023-03-26T01:14:24.095Z,100079.78
2023-03-26T01:16:54.806Z,100083.00
2023-03-26T01:19:30.353Z,100085.91
2023-03-26T01:21:59.091Z,100076.34
2023-03-26T01:24:28.430Z,100089.81
2023-03-26T01:27:17.673Z,100088.78
2023-03-26T01:29:52.600Z,100094.75
2023-03-26T01:32:30.872Z,100097.03
2023-03-26T01:35:12.415Z,100100.03
2023-03-26T01:37:52.524Z,100105.34
2023-03-26T01:40:27.754Z,100100.22
2023-03-26T01:42:59.914Z,100095.56
2023-03-26T01:45:31.140Z,100106.78
2023-03-26T01:47:59.356Z,100102.94
2023-03-26T01:50:27.311Z,100093.34
2023-03-26T01:52:55.192Z,100103.91
2023-03-26T01:55:27.986Z,100096.56
2023-03-26T01:58:04.019Z,100096.75
2023-03-26T02:00:34.626Z,100095.94
2023-03-26T02:03:17.669Z,100099.41
2023-03-26T02:05:54.292Z,100104.28
2023-03-26T02:08:25.388Z,100102.78
2023-03-26T02:10:58.532Z,100102.78
2023-03-26T02:13:27.137Z,100098.53
2023-03-26T02:16:00.249Z,100096.25
2023-03-26T02:18:36.082Z,100107.41
2023-03-26T02:21:05.467Z,100095.59
2023-03-26T02:23:35.694Z,100096.63
2023-03-26T02:26:07.456Z,100109.59
2023-03-26T02:28:35.760Z,100111.38
2023-03-26T02:31:03.509Z,100118.72
2023-03-26T02:33:32.017Z,100122.13
2023-03-26T02:36:02.084Z,100123.13
2023-03-26T02:38:30.432Z,100135.09
2023-03-26T02:40:58.006Z,100129.59
2023-03-26T02:43:26.985Z,100131.41
2023-03-26T02:45:55.057Z,100137.88
2023-03-26T02:48:23.049Z,100137.81
2023-03-26T02:50:54.184Z,100126.69
2023-03-26T02:53:24.199Z,100132.44
2023-03-26T02:55:52.273Z,100135.91
2023-03-26T02:58:20.198Z,100133.28
2023-03-26T03:00:50.724Z,100137.81
2023-03-26T03:03:18.478Z,100146.00
2023-03-26T03:05:46.084Z,100159.91
2023-03-26T03:08:13.686Z,100155.03
2023-03-26T03:10:41.312Z,100131.06
2023-03-26T03:13:08.984Z,100162.34
2023-03-26T03:15:36.700Z,100149.41
2023-03-26T03:18:06.077Z,100155.75
2023-03-26T03:20:35.344Z,100157.50
2023-03-26T03:23:03.184Z,100157.22
2023-03-26T03:25:32.506Z,100151.09
2023-03-26T03:28:00.248Z,100145.13
2023-03-26T03:30:27.950Z,100153.59
2023-03-26T03:32:58.204Z,100159.59
2023-03-26T03:35:27.868Z,100152.75
2023-03-26T03:37:55.608Z,100159.59
2023-03-26T03:40:23.385Z,100159.59
2023-03-26T03:42:51.648Z,100151.25
2023-03-26T03:45:19.586Z,100156.94
2023-03-26T03:47:47.283Z,100152.81
2023-03-26T03:50:15.022Z,100152.34
2023-03-26T03:52:44.363Z,100163.81
2023-03-26T03:55:13.951Z,100164.94
2023-03-26T03:57:41.816Z,100163.09
2023-03-26T04:00:11.848Z,100161.59
2023-03-26T04:02:42.893Z,100154.81
2023-03-26T04:05:11.650Z,100149.59
2023-03-26T04:07:40.006Z,100164.97
2023-03-26T04:10:10.848Z,100170.91
2023-03-26T04:12:38.552Z,100166.78
2023-03-26T04:15:07.315Z,100176.50
2023-03-26T04:17:42.781Z,100172.41
2023-03-26T04:20:14.715Z,100166.31
2023-03-26T04:22:43.400Z,100168.91
2023-03-26T04:25:15.419Z,100174.25
2023-03-26T04:27:44.026Z,100171.47
2023-03-26T04:30:16.542Z,100168.50
2023-03-26T04:32:44.709Z,100174.13
2023-03-26T04:35:14.619Z,100164.47
2023-03-26T04:37:44.377Z,100173.56
2023-03-26T04:40:16.429Z,100160.84
2023-03-26T04:42:46.433Z,100166.97
2023-03-26T04:45:14.922Z,100168.81
2023-03-26T04:47:42.972Z,100173.91
2023-03-26T04:50:12.777Z,100171.06
2023-03-26T04:52:42.618Z,100174.59
2023-03-26T04:55:24.574Z,100172.72
2023-03-26T04:57:56.718Z,100175.22
2023-03-26T05:00:25.377Z,100174.88
2023-03-26T05:02:55.834Z,100174.41
2023-03-26T05:05:24.003Z,100172.78
2023-03-26T05:07:51.649Z,100177.88
2023-03-26T05:10:21.778Z,100165.50
2023-03-26T05:12:50.130Z,100169.59
2023-03-26T05:15:17.835Z,100177.38
2023-03-26T05:17:46.455Z,100171.75
2023-03-26T05:20:20.906Z,100166.97
2023-03-26T05:22:49.264Z,100164.50
2023-03-26T05:25:17.150Z,100170.72
2023-03-26T05:27:46.477Z,100165.78
2023-03-26T05:30:16.690Z,100166.94
2023-03-26T05:32:44.697Z,100172.38
2023-03-26T05:35:12.694Z,100173.97
2023-03-26T05:37:41.218Z,100184.25
2023-03-26T05:40:12.264Z,100174.69
2023-03-26T05:42:41.022Z,100177.75
2023-03-26T05:45:12.792Z,100171.41
2023-03-26T05:47:40.564Z,100171.97
2023-03-26T05:50:09.825Z,100164.38
2023-03-26T05:52:37.792Z,100180.19
2023-03-26T05:55:06.550Z,100176.34
2023-03-26T05:57:35.361Z,100179.28
2023-03-26T06:00:04.223Z,100176.66
2023-03-26T06:02:33.703Z,100176.66
2023-03-26T06:05:02.823Z,100183.66
2023-03-26T06:07:31.187Z,100179.13
2023-03-26T06:09:58.835Z,100172.38
2023-03-26T06:12:26.486Z,100182.75
2023-03-26T06:14:54.231Z,100184.00
2023-03-26T06:17:22.112Z,100180.00
2023-03-26T06:19:51.410Z,100172.97
2023-03-26T06:22:19.097Z,100175.88
2023-03-26T06:24:46.779Z,100175.44
2023-03-26T06:27:14.516Z,100178.69
2023-03-26T06:29:42.161Z,100176.06
2023-03-26T06:32:19.041Z,100183.44
2023-03-26T06:34:47.542Z,100188.53
2023-03-26T06:37:16.910Z,100185.06
2023-03-26T06:39:44.599Z,100185.28
2023-03-26T06:42:12.323Z,100193.56
2023-03-26T06:44:40.294Z,100190.03
2023-03-26T06:47:07.908Z,100197.50
2023-03-26T06:49:35.989Z,100200.22
2023-03-26T06:52:03.671Z,100199.03
2023-03-26T06:54:33.114Z,100190.75
2023-03-26T06:57:00.816Z,100204.53
2023-03-26T06:59:28.647Z,100207.50
2023-03-26T07:01:56.305Z,100214.81
2023-03-26T07:04:23.960Z,100205.09
2023-03-26T07:06:51.728Z,100212.94
2023-03-26T07:09:19.410Z,100202.72
2023-03-26T07:11:48.661Z,100207.28
2023-03-26T07:14:16.535Z,100216.06
2023-03-26T07:16:44.116Z,100200.59
2023-03-26T07:19:11.753Z,100214.25
2023-03-26T07:21:39.887Z,100211.72
2023-03-26T07:24:11.289Z,100203.66
2023-03-26T07:26:52.877Z,100210.97
2023-03-26T07:29:30.015Z,100209.19
2023-03-26T07:32:06.966Z,100210.19
2023-03-26T07:34:45.219Z,100214.81
2023-03-26T07:37:22.868Z,100223.16
2023-03-26T07:39:55.839Z,100214.78
2023-03-26T07:42:39.119Z,100215.03
2023-03-26T07:45:18.200Z,100228.09
2023-03-26T07:47:47.645Z,100220.47
2023-03-26T07:50:18.385Z,100233.53
2023-03-26T07:52:47.223Z,100222.63
2023-03-26T07:55:17.095Z,100228.75
2023-03-26T07:57:55.012Z,100217.00
2023-03-26T08:00:27.756Z,100223.78
2023-03-26T08:03:11.934Z,100229.63
2023-03-26T08:05:45.996Z,100225.72
2023-03-26T08:08:20.734Z,100218.28
2023-03-26T08:11:03.206Z,100234.19
2023-03-26T08:13:40.645Z,100231.88
2023-03-26T08:16:13.656Z,100231.56
2023-03-26T08:18:48.696Z,100230.31
2023-03-26T08:21:20.521Z,100235.03
2023-03-26T08:24:00.388Z,100226.41
2023-03-26T08:26:36.241Z,100234.16
2023-03-26T08:29:18.294Z,100236.25
2023-03-26T08:31:48.956Z,100225.44
2023-03-26T08:34:17.149Z,100236.06
2023-03-26T08:36:44.836Z,100233.50
2023-03-26T08:39:13.033Z,100237.63
2023-03-26T08:42:05.963Z,100235.09
2023-03-26T08:45:14.138Z,100240.69
2023-03-26T08:48:24.308Z,100244.16
2023-03-26T08:51:24.952Z,100241.56
2023-03-26T08:54:30.733Z,100245.09
2023-03-26T08:57:16.288Z,100246.59
2023-03-26T09:00:05.898Z,100243.69
2023-03-26T09:02:54.815Z,100246.13
2023-03-26T09:05:55.951Z,100255.59
2023-03-26T09:08:53.628Z,100252.81
2023-03-26T09:11:54.284Z,100255.00
2023-03-26T09:14:53.252Z,100250.22
2023-03-26T09:17:45.476Z,100244.16
2023-03-26T09:20:48.253Z,100249.13
2023-03-26T09:24:00.638Z,100251.91
2023-03-26T09:26:41.285Z,100244.31
2023-03-26T09:29:51.773Z,100247.47
2023-03-26T09:32:47.097Z,100233.84
2023-03-26T09:35:29.963Z,100245.91
2023-03-26T09:38:03.386Z,100238.63
2023-03-26T09:40:39.606Z,100241.19
2023-03-26T09:43:37.437Z,100232.16
2023-03-26T09:46:18.970Z,100235.91
2023-03-26T09:49:20.958Z,100235.38
2023-03-26T09:51:59.751Z,100241.22
2023-03-26T09:54:44.504Z,100234.03
2023-03-26T09:57:25.212Z,100227.47
2023-03-26T10:00:09.955Z,100224.34
2023-03-26T10:03:15.589Z,100229.06
2023-03-26T10:05:54.729Z,100233.63
2023-03-26T10:08:55.459Z,100225.34
2023-03-26T10:11:34.264Z,100232.84
2023-03-26T10:14:10.481Z,100233.66
2023-03-26T10:16:49.014Z,100238.06
2023-03-26T10:19:40.775Z,100239.38
2023-03-26T10:22:24.482Z,100246.69
2023-03-26T10:25:23.647Z,100248.44
2023-03-26T10:28:03.013Z,100252.94
2023-03-26T10:30:45.901Z,100251.53
2023-03-26T10:33:25.103Z,100246.44
2023-03-26T10:36:03.201Z,100245.75
2023-03-26T10:38:50.165Z,100246.72
2023-03-26T10:41:22.430Z,100242.13
2023-03-26T10:44:27.812Z,100242.50
2023-03-26T10:47:14.623Z,100246.69
2023-03-26T10:50:04.027Z,100243.88
2023-03-26T10:52:38.754Z,100237.56
2023-03-26T10:55:15.606Z,100236.00
2023-03-26T10:57:46.771Z,100239.59
2023-03-26T11:00:20.570Z,100241.53
2023-03-26T11:03:05.234Z,100257.72
2023-03-26T11:05:48.014Z,100248.03
2023-03-26T11:08:30.980Z,100240.53
2023-03-26T11:11:08.083Z,100247.06
2023-03-26T11:13:47.626Z,100250.72
2023-03-26T11:16:26.528Z,100255.41
2023-03-26T11:18:59.776Z,100258.13
2023-03-26T11:21:36.067Z,100254.66
2023-03-26T11:24:40.556Z,100261.72
2023-03-26T11:30:23.348Z,100263.38
2023-03-26T11:32:54.288Z,100268.28
2023-03-26T11:34:36.678Z,100257.13
2023-03-26T11:35:40.903Z,100273.66
2023-03-26T11:38:17.732Z,100274.72
2023-03-26T11:40:50.921Z,100275.59
2023-03-26T11:43:25.098Z,100273.47
2023-03-26T11:45:53.952Z,100281.75
2023-03-26T11:48:27.633Z,100275.78
2023-03-26T11:50:59.816Z,100282.25
2023-03-26T11:53:32.777Z,100275.06
2023-03-26T11:56:04.402Z,100272.06
2023-03-26T11:58:39.224Z,100271.69
2023-03-26T12:01:15.367Z,100274.66
2023-03-26T12:03:42.965Z,100273.91
2023-03-26T12:06:25.573Z,100270.69
2023-03-26T12:08:55.160Z,100269.03
2023-03-26T12:11:27.176Z,100278.38
2023-03-26T12:13:59.484Z,100286.16
2023-03-26T12:16:28.086Z,100288.59
2023-03-26T12:19:01.291Z,100275.19
2023-03-26T12:21:28.932Z,100287.59
2023-03-26T12:24:00.024Z,100289.63
2023-03-26T12:26:35.787Z,100283.25
2023-03-26T12:29:09.946Z,100295.75
2023-03-26T12:32:04.113Z,100284.47
2023-03-26T12:34:35.689Z,100287.50
2023-03-26T12:37:05.647Z,100288.47
2023-03-26T12:40:10.094Z,100292.53
2023-03-26T12:44:44.475Z,100292.84
2023-03-26T12:45:20.959Z,100291.25
2023-03-26T12:48:01.145Z,100287.78
2023-03-26T12:50:56.970Z,100296.16
2023-03-26T12:53:53.921Z,100291.31
2023-03-26T12:56:38.471Z,100300.69
2023-03-26T12:59:34.103Z,100295.47
2023-03-26T13:02:25.075Z,100300.84
2023-03-26T13:05:06.751Z,100301.50
2023-03-26T13:07:52.644Z,100311.22
2023-03-26T13:10:35.089Z,100309.34
2023-03-26T13:13:18.005Z,100309.06
2023-03-26T13:15:52.494Z,100309.22
2023-03-26T13:18:32.133Z,100294.66
2023-03-26T13:21:09.188Z,100296.19
2023-03-26T13:23:44.934Z,100298.53
2023-03-26T13:26:22.715Z,100303.94
2023-03-26T13:28:56.852Z,100295.16
2023-03-26T13:31:30.328Z,100291.19
2023-03-26T13:34:10.143Z,100289.56
2023-03-26T13:36:48.049Z,100294.63
2023-03-26T13:39:26.186Z,100295.25
2023-03-26T13:42:10.056Z,100292.44
2023-03-26T13:44:51.054Z,100293.25
2023-03-26T13:47:23.172Z,100292.50
2023-03-26T13:49:56.175Z,100291.69
2023-03-26T13:52:27.939Z,100286.66
2023-03-26T13:55:02.606Z,100300.03
2023-03-26T13:57:35.907Z,100296.22
2023-03-26T14:00:12.834Z,100296.56
2023-03-26T14:02:42.319Z,100295.78
2023-03-26T14:05:20.517Z,100294.50
2023-03-26T14:07:52.382Z,100294.47
2023-03-26T14:10:24.414Z,100288.91
2023-03-26T14:12:57.707Z,100288.00
2023-03-26T14:15:30.450Z,100302.81
2023-03-26T14:18:07.651Z,100297.72
2023-03-26T14:21:19.846Z,100302.63
2023-03-26T14:24:02.945Z,100310.88
2023-03-26T14:26:47.631Z,100312.09
2023-03-26T14:29:30.763Z,100304.28
2023-03-26T14:32:10.667Z,100328.63
2023-03-26T14:34:51.188Z,100322.66
2023-03-26T14:37:41.040Z,100308.94
2023-03-26T14:40:29.352Z,100309.88
2023-03-26T14:43:15.901Z,100310.22
2023-03-26T14:46:08.470Z,100296.84
2023-03-26T14:48:59.079Z,100303.56
2023-03-26T14:51:50.911Z,100305.69
2023-03-26T14:54:21.798Z,100312.84
2023-03-26T14:57:17.448Z,100308.53
2023-03-26T15:00:19.927Z,100306.47
2023-03-26T15:03:34.584Z,100312.63
2023-03-26T15:06:26.403Z,100302.81
2023-03-26T15:09:27.055Z,100321.25
2023-03-26T15:12:12.118Z,100308.22
2023-03-26T15:15:11.053Z,100317.56
2023-03-26T15:18:08.799Z,100312.53
2023-03-26T15:21:18.509Z,100313.69
2023-03-26T15:24:07.625Z,100316.84
2023-03-26T15:27:11.651Z,100321.88
2023-03-26T15:30:39.030Z,100326.59
2023-03-26T15:33:49.652Z,100341.59
2023-03-26T15:36:36.991Z,100334.69
2023-03-26T15:39:38.076Z,100349.91
2023-03-26T15:42:15.708Z,100345.41
2023-03-26T15:44:54.521Z,100347.31
2023-03-26T15:47:48.148Z,100356.50
2023-03-26T15:50:36.560Z,100346.53
2023-03-26T15:53:18.414Z,100343.16
2023-03-26T15:56:02.979Z,100358.56
2023-03-26T15:58:44.108Z,100362.59
2023-03-26T16:01:23.088Z,100364.25
2023-03-26T16:03:59.487Z,100355.59
2023-03-26T16:06:33.993Z,100365.22
2023-03-26T16:09:26.987Z,100380.00
2023-03-26T16:11:56.846Z,100385.66
2023-03-26T16:14:42.788Z,100378.44
2023-03-26T16:17:14.724Z,100386.91
2023-03-26T16:19:50.458Z,100408.72
2023-03-26T16:22:42.877Z,100395.72
2023-03-26T16:25:27.348Z,100393.13
2023-03-26T16:28:30.265Z,100400.25
2023-03-26T16:31:37.736Z,100404.09
2023-03-26T16:34:43.091Z,100401.19
2023-03-26T16:37:43.832Z,100413.09
2023-03-26T16:40:51.540Z,100416.84
2023-03-26T16:43:42.103Z,100426.59
2023-03-26T16:46:20.377Z,100418.06
2023-03-26T16:48:56.698Z,100423.22
2023-03-26T16:51:34.197Z,100439.03
2023-03-26T16:54:13.039Z,100445.94
2023-03-26T16:56:49.918Z,100452.63
2023-03-26T16:59:40.159Z,100460.28
2023-03-26T17:02:17.845Z,100456.00
2023-03-26T17:05:37.992Z,100471.06
2023-03-26T17:08:16.906Z,100470.44
2023-03-26T17:10:57.353Z,100481.28
2023-03-26T17:13:34.987Z,100483.81
2023-03-26T17:16:12.530Z,100488.53
2023-03-26T17:18:49.315Z,100488.88
2023-03-26T17:21:24.665Z,100494.53
2023-03-26T17:24:05.298Z,100497.22
2023-03-26T17:26:44.351Z,100496.44
2023-03-26T17:29:24.814Z,100511.38
2023-03-26T17:32:00.427Z,100516.19
2023-03-26T17:35:07.461Z,100518.53
2023-03-26T17:37:48.064Z,100515.25
2023-03-26T17:40:44.574Z,100528.19
2023-03-26T17:43:13.516Z,100538.28
2023-03-26T17:45:45.764Z,100553.66
2023-03-26T17:48:35.486Z,100536.66
2023-03-26T17:51:12.222Z,100552.06
2023-03-26T17:53:42.538Z,100554.91
2023-03-26T17:56:17.527Z,100563.66
2023-03-26T17:58:48.946Z,100571.13
2023-03-26T18:01:28.809Z,100566.50
2023-03-26T18:04:00.104Z,100580.53
2023-03-26T18:06:47.715Z,100581.88
2023-03-26T18:09:37.020Z,100578.72
2023-03-26T18:12:31.369Z,100583.84
2023-03-26T18:15:27.092Z,100590.75
2023-03-26T18:18:03.209Z,100599.69
2023-03-26T18:20:32.317Z,100598.03
2023-03-26T18:22:59.922Z,100597.69
2023-03-26T18:25:33.930Z,100603.47
2023-03-26T18:28:02.973Z,100620.94
2023-03-26T18:30:31.114Z,100618.28
2023-03-26T18:33:03.411Z,100616.31
2023-03-26T18:35:41.501Z,100620.41
2023-03-26T18:38:14.806Z,100625.03
2023-03-26T18:40:46.389Z,100622.03
2023-03-26T18:43:25.381Z,100626.97
2023-03-26T18:45:57.257Z,100619.03
2023-03-26T18:48:26.595Z,100629.09
2023-03-26T18:50:57.394Z,100632.88
2023-03-26T18:53:29.690Z,100631.53
2023-03-26T18:55:59.462Z,100646.06
2023-03-26T18:58:29.968Z,100651.78
2023-03-26T19:01:01.432Z,100655.72
2023-03-26T19:03:32.467Z,100649.44
2023-03-26T19:06:02.340Z,100660.44
2023-03-26T19:08:31.018Z,100657.47
2023-03-26T19:11:02.122Z,100662.06
2023-03-26T19:13:29.866Z,100676.03
2023-03-26T19:15:57.791Z,100667.59
2023-03-26T19:18:28.834Z,100655.72
2023-03-26T19:20:59.805Z,100665.44
2023-03-26T19:23:32.246Z,100672.50
2023-03-26T19:26:04.079Z,100661.28
2023-03-26T19:28:34.617Z,100677.44
2023-03-26T19:31:09.283Z,100671.09
2023-03-26T19:33:39.314Z,100674.88
2023-03-26T19:36:18.648Z,100678.97
2023-03-26T19:38:51.837Z,100684.19
2023-03-26T19:41:25.625Z,100688.75
2023-03-26T19:43:56.111Z,100689.06
2023-03-26T19:46:24.975Z,100692.31
2023-03-26T19:48:54.520Z,100696.56
2023-03-26T19:51:24.382Z,100696.84
2023-03-26T19:53:58.127Z,100709.81
2023-03-26T19:56:28.642Z,100703.03
2023-03-26T19:58:57.220Z,100699.56
2023-03-26T20:01:27.110Z,100701.97
2023-03-26T20:03:57.730Z,100712.81
2023-03-26T20:09:17.096Z,100713.56
2023-03-26T20:11:47.045Z,100710.09
2023-03-26T20:14:16.632Z,100725.50
2023-03-26T20:16:45.465Z,100722.34
2023-03-26T20:19:13.911Z,100720.00
2023-03-26T20:21:42.224Z,100727.22
2023-03-26T20:24:13.222Z,100727.38
2023-03-26T20:26:40.908Z,100724.75
2023-03-26T20:29:10.097Z,100726.16
2023-03-26T20:31:38.425Z,100720.91
2023-03-26T20:34:14.523Z,100736.84
2023-03-26T20:36:42.214Z,100723.00
2023-03-26T20:39:10.202Z,100732.97
2023-03-26T20:41:42.730Z,100736.75
2023-03-26T20:44:15.380Z,100746.31
2023-03-26T20:46:44.055Z,100749.38
2023-03-26T20:49:12.917Z,100745.22
2023-03-26T20:51:41.856Z,100747.88
2023-03-26T20:54:15.749Z,100756.06
2023-03-26T20:56:43.419Z,100754.38
2023-03-26T20:59:22.683Z,100775.59
2023-03-26T21:01:51.253Z,100768.00
2023-03-26T21:04:20.280Z,100764.53
2023-03-26T21:06:48.683Z,100766.50
2023-03-26T21:09:18.602Z,100775.63
2023-03-26T21:11:52.860Z,100777.44
2023-03-26T21:14:24.986Z,100780.34
2023-03-26T21:16:53.248Z,100785.50
2023-03-26T21:19:21.337Z,100786.63
2023-03-26T21:21:57.528Z,100784.56
2023-03-26T21:24:35.095Z,100790.91
2023-03-26T21:27:11.208Z,100791.91
2023-03-26T21:29:40.962Z,100787.06
2023-03-26T21:32:11.109Z,100783.47
2023-03-26T21:34:47.692Z,100793.97
2023-03-26T21:37:20.291Z,100798.03
2023-03-26T21:39:48.335Z,100797.31
2023-03-26T21:42:16.574Z,100796.25
2023-03-26T21:44:46.186Z,100794.72
2023-03-26T21:47:14.849Z,100800.81
2023-03-26T21:49:43.117Z,100795.13
2023-03-26T21:52:15.129Z,100808.28
2023-03-26T21:54:43.876Z,100810.22
2023-03-26T21:57:26.618Z,100816.75
2023-03-26T22:00:07.833Z,100819.38
2023-03-26T22:02:42.335Z,100825.63
2023-03-26T22:05:15.743Z,100829.50
2023-03-26T22:07:53.706Z,100822.16
2023-03-26T22:10:21.511Z,100823.81
2023-03-26T22:12:49.375Z,100822.84
2023-03-26T22:15:19.946Z,100830.88
2023-03-26T22:17:53.725Z,100828.38
2023-03-26T22:20:24.332Z,100826.72
2023-03-26T22:22:53.345Z,100827.25
2023-03-26T22:25:22.751Z,100829.50
2023-03-26T22:27:51.836Z,100839.31
2023-03-26T22:30:21.830Z,100828.09
2023-03-26T22:32:50.513Z,100840.72
2023-03-26T22:35:18.419Z,100839.31
2023-03-26T22:37:47.383Z,100837.81
2023-03-26T22:40:15.034Z,100839.75
2023-03-26T22:42:42.932Z,100842.91
2023-03-26T22:45:11.531Z,100839.59
2023-03-26T22:47:40.909Z,100852.06
2023-03-26T22:50:09.888Z,100852.06
2023-03-26T22:52:40.638Z,100855.09
2023-03-26T22:55:10.860Z,100851.34
2023-03-26T22:57:38.552Z,100858.41
2023-03-26T23:00:16.074Z,100863.38
2023-03-26T23:02:46.330Z,100873.34
2023-03-26T23:05:14.142Z,100868.66
2023-03-26T23:07:42.556Z,100869.38
2023-03-26T23:10:11.563Z,100871.00
2023-03-26T23:12:39.327Z,100876.00
2023-03-26T23:15:08.971Z,100881.41
2023-03-26T23:17:38.635Z,100888.31
2023-03-26T23:20:14.334Z,100884.88
2023-03-26T23:22:42.976Z,100891.09
2023-03-26T23:25:11.846Z,100891.50
2023-03-26T23:27:40.144Z,100882.25
2023-03-26T23:30:10.683Z,100897.03
2023-03-26T23:32:38.571Z,100891.91
2023-03-26T23:35:08.624Z,100897.47
2023-03-26T23:37:36.548Z,100896.63
2023-03-26T23:40:09.817Z,100905.47
2023-03-26T23:42:37.590Z,100908.78
2023-03-26T23:45:05.906Z,100906.16
2023-03-26T23:47:34.871Z,100912.25
2023-03-26T23:50:03.381Z,100912.09
2023-03-26T23:52:32.597Z,100920.00
2023-03-26T23:55:00.802Z,100907.97
2023-03-26T23:57:28.990Z,100921.25
2023-03-26T23:59:56.662Z,100922.06
